sensor_id;sensor_type;location;lat;lon;timestamp;temperature;humidity
47590;DHT22;33316;52.298;9.056;2023-03-07T00:01:41;4.70;84.30
47590;DHT22;33316;52.298;9.056;2023-03-07T00:04:09;4.70;84.40
47590;DHT22;33316;52.298;9.056;2023-03-07T00:06:36;4.70;84.70
47590;DHT22;33316;52.298;9.056;2023-03-07T00:09:05;4.70;84.80
47590;DHT22;33316;52.298;9.056;2023-03-07T00:11:31;4.70;85.00
47590;DHT22;33316;52.298;9.056;2023-03-07T00:13:58;4.60;85.20
47590;DHT22;33316;52.298;9.056;2023-03-07T00:16:25;4.70;85.40
47590;DHT22;33316;52.298;9.056;2023-03-07T00:18:51;4.60;85.40
47590;DHT22;33316;52.298;9.056;2023-03-07T00:21:20;4.60;85.50
47590;DHT22;33316;52.298;9.056;2023-03-07T00:23:47;4.60;85.50
47590;DHT22;33316;52.298;9.056;2023-03-07T00:26:17;4.60;85.70
47590;DHT22;33316;52.298;9.056;2023-03-07T00:28:44;4.60;85.80
47590;DHT22;33316;52.298;9.056;2023-03-07T00:31:11;4.60;85.60
47590;DHT22;33316;52.298;9.056;2023-03-07T00:33:38;4.60;85.70
47590;DHT22;33316;52.298;9.056;2023-03-07T00:36:06;4.60;85.70
47590;DHT22;33316;52.298;9.056;2023-03-07T00:38:34;4.60;85.80
47590;DHT22;33316;52.298;9.056;2023-03-07T00:41:01;4.60;86.00
47590;DHT22;33316;52.298;9.056;2023-03-07T00:43:28;4.60;86.10
47590;DHT22;33316;52.298;9.056;2023-03-07T00:45:55;4.60;86.20
47590;DHT22;33316;52.298;9.056;2023-03-07T00:48:21;4.60;86.20
47590;DHT22;33316;52.298;9.056;2023-03-07T00:50:48;4.60;86.20
47590;DHT22;33316;52.298;9.056;2023-03-07T00:53:15;4.60;86.30
47590;DHT22;33316;52.298;9.056;2023-03-07T00:55:52;4.60;86.30
47590;DHT22;33316;52.298;9.056;2023-03-07T00:58:19;4.60;86.40
47590;DHT22;33316;52.298;9.056;2023-03-07T01:00:45;4.60;86.40
47590;DHT22;33316;52.298;9.056;2023-03-07T01:03:12;4.60;86.50
47590;DHT22;33316;52.298;9.056;2023-03-07T01:05:39;4.60;86.60
47590;DHT22;33316;52.298;9.056;2023-03-07T01:08:05;4.60;86.60
47590;DHT22;33316;52.298;9.056;2023-03-07T01:10:32;4.60;86.70
47590;DHT22;33316;52.298;9.056;2023-03-07T01:13:00;4.60;86.60
47590;DHT22;33316;52.298;9.056;2023-03-07T01:15:26;4.60;86.60
47590;DHT22;33316;52.298;9.056;2023-03-07T01:17:53;4.60;86.60
47590;DHT22;33316;52.298;9.056;2023-03-07T01:20:20;4.60;86.70
47590;DHT22;33316;52.298;9.056;2023-03-07T01:22:46;4.60;86.90
47590;DHT22;33316;52.298;9.056;2023-03-07T01:25:13;4.70;87.00
47590;DHT22;33316;52.298;9.056;2023-03-07T01:27:39;4.70;87.00
47590;DHT22;33316;52.298;9.056;2023-03-07T01:30:08;4.70;87.10
47590;DHT22;33316;52.298;9.056;2023-03-07T01:32:35;4.70;87.20
47590;DHT22;33316;52.298;9.056;2023-03-07T01:35:02;4.70;87.50
47590;DHT22;33316;52.298;9.056;2023-03-07T01:37:28;4.70;87.60
47590;DHT22;33316;52.298;9.056;2023-03-07T01:39:55;4.70;87.70
47590;DHT22;33316;52.298;9.056;2023-03-07T01:42:21;4.70;87.80
47590;DHT22;33316;52.298;9.056;2023-03-07T01:44:59;4.70;88.00
47590;DHT22;33316;52.298;9.056;2023-03-07T01:47:27;4.70;88.20
47590;DHT22;33316;52.298;9.056;2023-03-07T01:49:54;4.70;88.10
47590;DHT22;33316;52.298;9.056;2023-03-07T01:52:22;4.70;88.20
47590;DHT22;33316;52.298;9.056;2023-03-07T01:54:50;4.70;88.20
47590;DHT22;33316;52.298;9.056;2023-03-07T01:57:18;4.70;88.30
47590;DHT22;33316;52.298;9.056;2023-03-07T01:59:46;4.80;88.40
47590;DHT22;33316;52.298;9.056;2023-03-07T02:02:14;4.80;88.50
47590;DHT22;33316;52.298;9.056;2023-03-07T02:04:45;4.80;88.60
47590;DHT22;33316;52.298;9.056;2023-03-07T02:07:14;4.80;88.70
47590;DHT22;33316;52.298;9.056;2023-03-07T02:09:41;4.80;88.70
47590;DHT22;33316;52.298;9.056;2023-03-07T02:12:08;4.80;88.80
47590;DHT22;33316;52.298;9.056;2023-03-07T02:14:35;4.80;88.80
47590;DHT22;33316;52.298;9.056;2023-03-07T02:17:02;4.80;88.90
47590;DHT22;33316;52.298;9.056;2023-03-07T02:19:32;4.80;88.90
47590;DHT22;33316;52.298;9.056;2023-03-07T02:22:04;4.80;89.10
47590;DHT22;33316;52.298;9.056;2023-03-07T02:24:34;4.80;89.00
47590;DHT22;33316;52.298;9.056;2023-03-07T02:27:03;4.90;89.30
47590;DHT22;33316;52.298;9.056;2023-03-07T02:29:30;4.90;89.40
47590;DHT22;33316;52.298;9.056;2023-03-07T02:31:57;4.90;89.30
47590;DHT22;33316;52.298;9.056;2023-03-07T02:34:24;4.90;89.20
47590;DHT22;33316;52.298;9.056;2023-03-07T02:36:51;4.90;89.30
47590;DHT22;33316;52.298;9.056;2023-03-07T02:39:19;4.90;89.20
47590;DHT22;33316;52.298;9.056;2023-03-07T02:41:46;4.90;89.10
47590;DHT22;33316;52.298;9.056;2023-03-07T02:44:15;4.90;89.30
47590;DHT22;33316;52.298;9.056;2023-03-07T02:46:41;4.90;89.20
47590;DHT22;33316;52.298;9.056;2023-03-07T02:49:08;4.90;89.10
47590;DHT22;33316;52.298;9.056;2023-03-07T02:51:34;4.90;89.00
47590;DHT22;33316;52.298;9.056;2023-03-07T02:54:01;4.90;89.00
47590;DHT22;33316;52.298;9.056;2023-03-07T02:56:28;4.90;89.10
47590;DHT22;33316;52.298;9.056;2023-03-07T02:58:55;5.00;89.20
47590;DHT22;33316;52.298;9.056;2023-03-07T03:01:23;4.90;89.10
47590;DHT22;33316;52.298;9.056;2023-03-07T03:03:50;4.90;89.10
47590;DHT22;33316;52.298;9.056;2023-03-07T03:06:16;4.90;89.10
47590;DHT22;33316;52.298;9.056;2023-03-07T03:08:43;4.90;89.10
47590;DHT22;33316;52.298;9.056;2023-03-07T03:11:09;5.00;89.30
47590;DHT22;33316;52.298;9.056;2023-03-07T03:13:36;5.00;89.40
47590;DHT22;33316;52.298;9.056;2023-03-07T03:16:03;5.00;89.50
47590;DHT22;33316;52.298;9.056;2023-03-07T03:18:31;5.00;89.40
47590;DHT22;33316;52.298;9.056;2023-03-07T03:20:59;5.00;89.40
47590;DHT22;33316;52.298;9.056;2023-03-07T03:23:31;5.00;89.40
47590;DHT22;33316;52.298;9.056;2023-03-07T03:25:58;5.00;89.50
47590;DHT22;33316;52.298;9.056;2023-03-07T03:28:25;5.00;89.50
47590;DHT22;33316;52.298;9.056;2023-03-07T03:30:58;5.00;89.60
47590;DHT22;33316;52.298;9.056;2023-03-07T03:33:25;5.00;89.60
47590;DHT22;33316;52.298;9.056;2023-03-07T03:35:53;5.00;89.60
47590;DHT22;33316;52.298;9.056;2023-03-07T03:38:19;5.00;89.70
47590;DHT22;33316;52.298;9.056;2023-03-07T03:40:46;5.10;89.70
47590;DHT22;33316;52.298;9.056;2023-03-07T03:43:13;5.10;89.70
47590;DHT22;33316;52.298;9.056;2023-03-07T03:45:39;5.10;89.70
47590;DHT22;33316;52.298;9.056;2023-03-07T03:48:06;5.10;89.70
47590;DHT22;33316;52.298;9.056;2023-03-07T03:50:33;5.10;89.80
47590;DHT22;33316;52.298;9.056;2023-03-07T03:53:01;5.10;89.70
47590;DHT22;33316;52.298;9.056;2023-03-07T03:55:28;5.10;89.80
47590;DHT22;33316;52.298;9.056;2023-03-07T03:57:54;5.10;89.90
47590;DHT22;33316;52.298;9.056;2023-03-07T04:00:21;5.10;89.90
47590;DHT22;33316;52.298;9.056;2023-03-07T04:02:48;5.10;90.00
47590;DHT22;33316;52.298;9.056;2023-03-07T04:05:14;5.10;90.00
47590;DHT22;33316;52.298;9.056;2023-03-07T04:07:41;5.10;90.00
47590;DHT22;33316;52.298;9.056;2023-03-07T04:10:09;5.10;90.00
47590;DHT22;33316;52.298;9.056;2023-03-07T04:12:36;5.10;90.00
47590;DHT22;33316;52.298;9.056;2023-03-07T04:15:03;5.10;90.00
47590;DHT22;33316;52.298;9.056;2023-03-07T04:17:31;5.10;90.00
47590;DHT22;33316;52.298;9.056;2023-03-07T04:19:58;5.10;90.00
47590;DHT22;33316;52.298;9.056;2023-03-07T04:22:24;5.10;90.00
47590;DHT22;33316;52.298;9.056;2023-03-07T04:24:51;5.10;90.00
47590;DHT22;33316;52.298;9.056;2023-03-07T04:27:19;5.10;90.00
47590;DHT22;33316;52.298;9.056;2023-03-07T04:29:45;5.10;90.00
47590;DHT22;33316;52.298;9.056;2023-03-07T04:32:12;5.20;90.10
47590;DHT22;33316;52.298;9.056;2023-03-07T04:34:38;5.20;90.10
47590;DHT22;33316;52.298;9.056;2023-03-07T04:37:05;5.10;90.10
47590;DHT22;33316;52.298;9.056;2023-03-07T04:39:31;5.10;90.30
47590;DHT22;33316;52.298;9.056;2023-03-07T04:41:58;5.10;90.40
47590;DHT22;33316;52.298;9.056;2023-03-07T04:44:26;5.10;90.40
47590;DHT22;33316;52.298;9.056;2023-03-07T04:46:52;5.10;90.40
47590;DHT22;33316;52.298;9.056;2023-03-07T04:49:19;5.10;90.50
47590;DHT22;33316;52.298;9.056;2023-03-07T04:51:45;5.10;90.50
47590;DHT22;33316;52.298;9.056;2023-03-07T04:54:12;5.00;90.50
47590;DHT22;33316;52.298;9.056;2023-03-07T04:56:38;5.00;90.60
47590;DHT22;33316;52.298;9.056;2023-03-07T04:59:05;5.00;90.60
47590;DHT22;33316;52.298;9.056;2023-03-07T05:01:32;4.90;90.50
47590;DHT22;33316;52.298;9.056;2023-03-07T05:03:59;4.90;90.30
47590;DHT22;33316;52.298;9.056;2023-03-07T05:06:26;4.80;90.00
47590;DHT22;33316;52.298;9.056;2023-03-07T05:08:52;4.80;89.80
47590;DHT22;33316;52.298;9.056;2023-03-07T05:11:19;4.80;89.50
47590;DHT22;33316;52.298;9.056;2023-03-07T05:13:45;4.80;89.40
47590;DHT22;33316;52.298;9.056;2023-03-07T05:16:12;4.80;89.40
47590;DHT22;33316;52.298;9.056;2023-03-07T05:18:39;4.80;89.50
47590;DHT22;33316;52.298;9.056;2023-03-07T05:21:06;4.80;89.60
47590;DHT22;33316;52.298;9.056;2023-03-07T05:23:33;4.80;89.60
47590;DHT22;33316;52.298;9.056;2023-03-07T05:25:59;4.80;89.80
47590;DHT22;33316;52.298;9.056;2023-03-07T05:28:26;4.80;89.80
47590;DHT22;33316;52.298;9.056;2023-03-07T05:30:52;4.90;89.90
47590;DHT22;33316;52.298;9.056;2023-03-07T05:33:19;4.90;89.90
47590;DHT22;33316;52.298;9.056;2023-03-07T05:35:47;4.90;89.90
47590;DHT22;33316;52.298;9.056;2023-03-07T05:38:13;4.90;89.90
47590;DHT22;33316;52.298;9.056;2023-03-07T05:40:40;4.90;89.80
47590;DHT22;33316;52.298;9.056;2023-03-07T05:43:06;4.90;89.80
47590;DHT22;33316;52.298;9.056;2023-03-07T05:45:33;4.90;89.80
47590;DHT22;33316;52.298;9.056;2023-03-07T05:47:59;4.90;89.80
47590;DHT22;33316;52.298;9.056;2023-03-07T05:50:26;4.90;89.80
47590;DHT22;33316;52.298;9.056;2023-03-07T05:52:54;4.90;89.70
47590;DHT22;33316;52.298;9.056;2023-03-07T05:55:20;4.90;89.60
47590;DHT22;33316;52.298;9.056;2023-03-07T05:57:48;4.90;89.60
47590;DHT22;33316;52.298;9.056;2023-03-07T06:00:15;4.90;89.60
47590;DHT22;33316;52.298;9.056;2023-03-07T06:02:41;4.90;89.60
47590;DHT22;33316;52.298;9.056;2023-03-07T06:05:08;4.90;89.50
47590;DHT22;33316;52.298;9.056;2023-03-07T06:07:35;4.90;89.50
47590;DHT22;33316;52.298;9.056;2023-03-07T06:10:03;4.90;89.60
47590;DHT22;33316;52.298;9.056;2023-03-07T06:12:29;4.90;89.60
47590;DHT22;33316;52.298;9.056;2023-03-07T06:14:56;4.90;89.60
47590;DHT22;33316;52.298;9.056;2023-03-07T06:17:22;4.90;89.60
47590;DHT22;33316;52.298;9.056;2023-03-07T06:19:49;4.90;89.60
47590;DHT22;33316;52.298;9.056;2023-03-07T06:22:16;4.90;89.60
47590;DHT22;33316;52.298;9.056;2023-03-07T06:24:42;4.90;89.60
47590;DHT22;33316;52.298;9.056;2023-03-07T06:27:10;4.90;89.60
47590;DHT22;33316;52.298;9.056;2023-03-07T06:29:36;4.90;89.60
47590;DHT22;33316;52.298;9.056;2023-03-07T06:32:03;4.90;89.50
47590;DHT22;33316;52.298;9.056;2023-03-07T06:34:30;4.90;89.50
47590;DHT22;33316;52.298;9.056;2023-03-07T06:36:56;4.90;89.50
47590;DHT22;33316;52.298;9.056;2023-03-07T06:39:24;4.90;89.30
47590;DHT22;33316;52.298;9.056;2023-03-07T06:41:51;4.90;89.30
47590;DHT22;33316;52.298;9.056;2023-03-07T06:44:20;4.90;89.20
47590;DHT22;33316;52.298;9.056;2023-03-07T06:46:46;4.90;89.20
47590;DHT22;33316;52.298;9.056;2023-03-07T06:49:13;4.90;89.20
47590;DHT22;33316;52.298;9.056;2023-03-07T06:51:39;4.90;89.20
47590;DHT22;33316;52.298;9.056;2023-03-07T06:54:06;4.90;89.10
47590;DHT22;33316;52.298;9.056;2023-03-07T06:56:32;4.90;89.00
47590;DHT22;33316;52.298;9.056;2023-03-07T06:59:00;4.90;89.00
47590;DHT22;33316;52.298;9.056;2023-03-07T07:01:28;4.90;89.00
47590;DHT22;33316;52.298;9.056;2023-03-07T07:03:55;4.90;88.90
47590;DHT22;33316;52.298;9.056;2023-03-07T07:06:21;4.90;88.80
47590;DHT22;33316;52.298;9.056;2023-03-07T07:08:48;4.90;88.90
47590;DHT22;33316;52.298;9.056;2023-03-07T07:11:14;4.90;88.80
47590;DHT22;33316;52.298;9.056;2023-03-07T07:13:41;4.90;88.80
47590;DHT22;33316;52.298;9.056;2023-03-07T07:16:07;4.90;88.80
47590;DHT22;33316;52.298;9.056;2023-03-07T07:18:35;4.90;89.70
47590;DHT22;33316;52.298;9.056;2023-03-07T07:21:02;4.90;89.00
47590;DHT22;33316;52.298;9.056;2023-03-07T07:23:29;4.90;89.10
47590;DHT22;33316;52.298;9.056;2023-03-07T07:25:56;4.90;89.10
47590;DHT22;33316;52.298;9.056;2023-03-07T07:28:22;4.90;89.10
47590;DHT22;33316;52.298;9.056;2023-03-07T07:30:49;4.90;89.00
47590;DHT22;33316;52.298;9.056;2023-03-07T07:33:15;4.90;88.80
47590;DHT22;33316;52.298;9.056;2023-03-07T07:35:43;4.90;88.80
47590;DHT22;33316;52.298;9.056;2023-03-07T07:38:10;4.90;88.80
47590;DHT22;33316;52.298;9.056;2023-03-07T07:40:37;4.90;88.70
47590;DHT22;33316;52.298;9.056;2023-03-07T07:43:04;4.90;88.70
47590;DHT22;33316;52.298;9.056;2023-03-07T07:45:30;4.90;88.70
47590;DHT22;33316;52.298;9.056;2023-03-07T07:47:57;4.90;88.80
47590;DHT22;33316;52.298;9.056;2023-03-07T07:50:24;4.90;88.80
47590;DHT22;33316;52.298;9.056;2023-03-07T07:52:52;4.90;88.60
47590;DHT22;33316;52.298;9.056;2023-03-07T07:55:19;4.90;88.40
47590;DHT22;33316;52.298;9.056;2023-03-07T07:57:46;4.80;87.90
47590;DHT22;33316;52.298;9.056;2023-03-07T08:00:13;4.70;87.80
47590;DHT22;33316;52.298;9.056;2023-03-07T08:02:43;4.70;87.80
47590;DHT22;33316;52.298;9.056;2023-03-07T08:05:10;4.60;87.70
47590;DHT22;33316;52.298;9.056;2023-03-07T08:07:37;4.60;87.80
47590;DHT22;33316;52.298;9.056;2023-03-07T08:10:06;4.50;87.80
47590;DHT22;33316;52.298;9.056;2023-03-07T08:12:32;4.50;87.90
47590;DHT22;33316;52.298;9.056;2023-03-07T08:14:59;4.50;88.00
47590;DHT22;33316;52.298;9.056;2023-03-07T08:17:27;4.50;88.00
47590;DHT22;33316;52.298;9.056;2023-03-07T08:19:53;4.40;88.00
47590;DHT22;33316;52.298;9.056;2023-03-07T08:22:22;4.40;88.10
47590;DHT22;33316;52.298;9.056;2023-03-07T08:24:48;4.40;88.20
47590;DHT22;33316;52.298;9.056;2023-03-07T08:27:17;4.40;88.30
47590;DHT22;33316;52.298;9.056;2023-03-07T08:29:46;4.40;88.40
47590;DHT22;33316;52.298;9.056;2023-03-07T08:32:13;4.30;88.40
47590;DHT22;33316;52.298;9.056;2023-03-07T08:34:39;4.30;88.50
47590;DHT22;33316;52.298;9.056;2023-03-07T08:37:06;4.40;88.50
47590;DHT22;33316;52.298;9.056;2023-03-07T08:39:32;4.40;88.50
47590;DHT22;33316;52.298;9.056;2023-03-07T08:41:59;4.40;88.50
47590;DHT22;33316;52.298;9.056;2023-03-07T08:44:27;4.40;88.60
47590;DHT22;33316;52.298;9.056;2023-03-07T08:46:53;4.40;88.60
47590;DHT22;33316;52.298;9.056;2023-03-07T08:49:20;4.40;88.60
47590;DHT22;33316;52.298;9.056;2023-03-07T08:51:46;4.40;88.70
47590;DHT22;33316;52.298;9.056;2023-03-07T08:54:13;4.40;88.80
47590;DHT22;33316;52.298;9.056;2023-03-07T08:56:40;4.40;88.90
47590;DHT22;33316;52.298;9.056;2023-03-07T08:59:06;4.40;88.80
47590;DHT22;33316;52.298;9.056;2023-03-07T09:01:34;4.50;88.80
47590;DHT22;33316;52.298;9.056;2023-03-07T09:04:00;4.50;88.90
47590;DHT22;33316;52.298;9.056;2023-03-07T09:06:29;4.50;88.90
47590;DHT22;33316;52.298;9.056;2023-03-07T09:08:55;4.50;88.80
47590;DHT22;33316;52.298;9.056;2023-03-07T09:11:22;4.50;88.80
47590;DHT22;33316;52.298;9.056;2023-03-07T09:13:50;4.50;88.70
47590;DHT22;33316;52.298;9.056;2023-03-07T09:16:17;4.50;89.50
47590;DHT22;33316;52.298;9.056;2023-03-07T09:18:45;4.50;88.70
47590;DHT22;33316;52.298;9.056;2023-03-07T09:21:11;4.50;88.70
47590;DHT22;33316;52.298;9.056;2023-03-07T09:23:38;4.50;88.60
47590;DHT22;33316;52.298;9.056;2023-03-07T09:26:04;4.50;88.70
47590;DHT22;33316;52.298;9.056;2023-03-07T09:28:31;4.40;88.60
47590;DHT22;33316;52.298;9.056;2023-03-07T09:30:58;4.50;88.60
47590;DHT22;33316;52.298;9.056;2023-03-07T09:33:24;4.50;88.70
47590;DHT22;33316;52.298;9.056;2023-03-07T09:35:52;4.50;88.80
47590;DHT22;33316;52.298;9.056;2023-03-07T09:38:19;4.50;88.80
47590;DHT22;33316;52.298;9.056;2023-03-07T09:40:46;4.50;88.90
47590;DHT22;33316;52.298;9.056;2023-03-07T09:43:15;4.50;89.00
47590;DHT22;33316;52.298;9.056;2023-03-07T09:45:48;4.50;89.00
47590;DHT22;33316;52.298;9.056;2023-03-07T09:48:30;4.50;89.10
47590;DHT22;33316;52.298;9.056;2023-03-07T09:51:01;4.50;89.10
47590;DHT22;33316;52.298;9.056;2023-03-07T09:53:30;4.50;89.10
47590;DHT22;33316;52.298;9.056;2023-03-07T09:56:01;4.50;89.20
47590;DHT22;33316;52.298;9.056;2023-03-07T09:58:28;4.50;89.20
47590;DHT22;33316;52.298;9.056;2023-03-07T10:00:56;4.50;89.20
47590;DHT22;33316;52.298;9.056;2023-03-07T10:03:26;4.50;89.20
47590;DHT22;33316;52.298;9.056;2023-03-07T10:05:55;4.50;89.30
47590;DHT22;33316;52.298;9.056;2023-03-07T10:08:27;4.50;89.40
47590;DHT22;33316;52.298;9.056;2023-03-07T10:10:55;4.50;89.40
47590;DHT22;33316;52.298;9.056;2023-03-07T10:13:30;4.40;89.30
47590;DHT22;33316;52.298;9.056;2023-03-07T10:15:59;4.40;89.30
47590;DHT22;33316;52.298;9.056;2023-03-07T10:18:29;4.40;89.30
47590;DHT22;33316;52.298;9.056;2023-03-07T10:20:58;4.40;89.30
47590;DHT22;33316;52.298;9.056;2023-03-07T10:23:35;4.40;89.30
47590;DHT22;33316;52.298;9.056;2023-03-07T10:26:06;4.40;89.30
47590;DHT22;33316;52.298;9.056;2023-03-07T10:28:35;4.50;89.40
47590;DHT22;33316;52.298;9.056;2023-03-07T10:31:09;4.50;89.40
47590;DHT22;33316;52.298;9.056;2023-03-07T10:33:39;4.40;90.00
47590;DHT22;33316;52.298;9.056;2023-03-07T10:36:10;4.40;89.30
47590;DHT22;33316;52.298;9.056;2023-03-07T10:38:41;4.40;89.30
47590;DHT22;33316;52.298;9.056;2023-03-07T10:41:10;4.40;89.30
47590;DHT22;33316;52.298;9.056;2023-03-07T10:43:39;4.40;89.30
47590;DHT22;33316;52.298;9.056;2023-03-07T10:46:09;4.40;89.30
47590;DHT22;33316;52.298;9.056;2023-03-07T10:48:37;4.40;89.30
47590;DHT22;33316;52.298;9.056;2023-03-07T10:51:05;4.40;89.30
47590;DHT22;33316;52.298;9.056;2023-03-07T10:53:35;4.40;89.30
47590;DHT22;33316;52.298;9.056;2023-03-07T10:56:08;4.40;89.30
47590;DHT22;33316;52.298;9.056;2023-03-07T10:58:35;4.40;89.30
47590;DHT22;33316;52.298;9.056;2023-03-07T11:01:10;4.40;89.40
47590;DHT22;33316;52.298;9.056;2023-03-07T11:03:39;4.40;89.50
47590;DHT22;33316;52.298;9.056;2023-03-07T11:06:09;4.40;89.60
47590;DHT22;33316;52.298;9.056;2023-03-07T11:08:49;4.40;89.50
47590;DHT22;33316;52.298;9.056;2023-03-07T11:11:22;4.40;89.50
47590;DHT22;33316;52.298;9.056;2023-03-07T11:14:02;4.40;89.60
47590;DHT22;33316;52.298;9.056;2023-03-07T11:16:29;4.40;89.60
47590;DHT22;33316;52.298;9.056;2023-03-07T11:18:55;4.40;89.60
47590;DHT22;33316;52.298;9.056;2023-03-07T11:21:25;4.40;89.60
47590;DHT22;33316;52.298;9.056;2023-03-07T11:23:57;4.40;89.80
47590;DHT22;33316;52.298;9.056;2023-03-07T11:26:29;4.50;89.90
47590;DHT22;33316;52.298;9.056;2023-03-07T11:29:02;4.50;89.90
47590;DHT22;33316;52.298;9.056;2023-03-07T11:31:30;4.50;90.00
47590;DHT22;33316;52.298;9.056;2023-03-07T11:34:07;4.50;89.90
47590;DHT22;33316;52.298;9.056;2023-03-07T11:36:38;4.60;90.00
47590;DHT22;33316;52.298;9.056;2023-03-07T11:39:10;4.60;89.90
47590;DHT22;33316;52.298;9.056;2023-03-07T11:41:41;4.60;89.80
47590;DHT22;33316;52.298;9.056;2023-03-07T11:44:11;4.70;89.80
47590;DHT22;33316;52.298;9.056;2023-03-07T11:46:43;4.70;89.80
47590;DHT22;33316;52.298;9.056;2023-03-07T11:49:22;4.70;89.70
47590;DHT22;33316;52.298;9.056;2023-03-07T11:51:53;4.80;89.70
47590;DHT22;33316;52.298;9.056;2023-03-07T11:54:25;4.80;89.60
47590;DHT22;33316;52.298;9.056;2023-03-07T11:56:57;4.80;89.50
47590;DHT22;33316;52.298;9.056;2023-03-07T12:02:24;4.90;89.60
47590;DHT22;33316;52.298;9.056;2023-03-07T12:05:16;4.90;89.50
47590;DHT22;33316;52.298;9.056;2023-03-07T12:07:47;4.90;89.40
47590;DHT22;33316;52.298;9.056;2023-03-07T12:10:20;5.00;89.40
47590;DHT22;33316;52.298;9.056;2023-03-07T12:12:57;5.00;89.40
47590;DHT22;33316;52.298;9.056;2023-03-07T12:15:30;5.00;89.20
47590;DHT22;33316;52.298;9.056;2023-03-07T12:18:05;5.10;89.20
47590;DHT22;33316;52.298;9.056;2023-03-07T12:20:36;5.10;89.10
47590;DHT22;33316;52.298;9.056;2023-03-07T12:23:09;5.10;89.00
47590;DHT22;33316;52.298;9.056;2023-03-07T12:25:40;5.10;89.00
47590;DHT22;33316;52.298;9.056;2023-03-07T12:28:12;5.10;89.10
47590;DHT22;33316;52.298;9.056;2023-03-07T12:30:43;5.20;89.80
47590;DHT22;33316;52.298;9.056;2023-03-07T12:33:16;5.20;89.00
47590;DHT22;33316;52.298;9.056;2023-03-07T12:35:44;5.20;88.90
47590;DHT22;33316;52.298;9.056;2023-03-07T12:38:14;5.20;88.70
47590;DHT22;33316;52.298;9.056;2023-03-07T12:40:47;5.20;88.60
47590;DHT22;33316;52.298;9.056;2023-03-07T12:43:17;5.20;88.60
47590;DHT22;33316;52.298;9.056;2023-03-07T12:45:46;5.20;88.50
47590;DHT22;33316;52.298;9.056;2023-03-07T12:48:16;5.10;88.50
47590;DHT22;33316;52.298;9.056;2023-03-07T12:50:45;5.20;88.60
47590;DHT22;33316;52.298;9.056;2023-03-07T12:53:16;5.20;88.50
47590;DHT22;33316;52.298;9.056;2023-03-07T12:55:47;5.20;88.60
47590;DHT22;33316;52.298;9.056;2023-03-07T12:58:18;5.20;88.60
47590;DHT22;33316;52.298;9.056;2023-03-07T13:00:48;5.20;88.60
47590;DHT22;33316;52.298;9.056;2023-03-07T13:03:17;5.20;88.50
47590;DHT22;33316;52.298;9.056;2023-03-07T13:05:46;5.20;88.60
47590;DHT22;33316;52.298;9.056;2023-03-07T13:08:15;5.30;88.70
47590;DHT22;33316;52.298;9.056;2023-03-07T13:10:43;5.30;88.70
47590;DHT22;33316;52.298;9.056;2023-03-07T13:16:03;5.30;88.60
47590;DHT22;33316;52.298;9.056;2023-03-07T13:18:30;5.30;88.50
47590;DHT22;33316;52.298;9.056;2023-03-07T13:21:14;5.30;88.40
47590;DHT22;33316;52.298;9.056;2023-03-07T13:26:36;5.30;88.40
47590;DHT22;33316;52.298;9.056;2023-03-07T13:29:03;5.30;88.40
47590;DHT22;33316;52.298;9.056;2023-03-07T13:31:38;5.30;88.30
47590;DHT22;33316;52.298;9.056;2023-03-07T13:40:02;5.30;88.10
47590;DHT22;33316;52.298;9.056;2023-03-07T13:42:45;5.30;88.10
47590;DHT22;33316;52.298;9.056;2023-03-07T13:47:58;5.20;88.10
47590;DHT22;33316;52.298;9.056;2023-03-07T13:50:35;5.20;88.20
47590;DHT22;33316;52.298;9.056;2023-03-07T13:53:03;5.10;87.80
47590;DHT22;33316;52.298;9.056;2023-03-07T13:55:37;5.00;87.40
47590;DHT22;33316;52.298;9.056;2023-03-07T13:58:10;4.90;87.20
47590;DHT22;33316;52.298;9.056;2023-03-07T14:00:40;4.90;87.20
47590;DHT22;33316;52.298;9.056;2023-03-07T14:03:12;4.80;87.20
47590;DHT22;33316;52.298;9.056;2023-03-07T14:05:42;4.80;87.20
47590;DHT22;33316;52.298;9.056;2023-03-07T14:08:09;4.70;87.30
47590;DHT22;33316;52.298;9.056;2023-03-07T14:10:38;4.60;87.40
47590;DHT22;33316;52.298;9.056;2023-03-07T14:13:17;4.60;87.50
47590;DHT22;33316;52.298;9.056;2023-03-07T14:15:49;4.60;87.50
47590;DHT22;33316;52.298;9.056;2023-03-07T14:18:22;4.50;87.60
47590;DHT22;33316;52.298;9.056;2023-03-07T14:20:53;4.50;87.60
47590;DHT22;33316;52.298;9.056;2023-03-07T14:23:24;4.50;87.80
47590;DHT22;33316;52.298;9.056;2023-03-07T14:25:55;4.40;87.80
47590;DHT22;33316;52.298;9.056;2023-03-07T14:28:26;4.40;87.80
47590;DHT22;33316;52.298;9.056;2023-03-07T14:30:53;4.30;87.80
47590;DHT22;33316;52.298;9.056;2023-03-07T14:33:26;4.30;87.80
47590;DHT22;33316;52.298;9.056;2023-03-07T14:35:54;4.30;87.90
47590;DHT22;33316;52.298;9.056;2023-03-07T14:38:21;4.30;87.90
47590;DHT22;33316;52.298;9.056;2023-03-07T14:40:53;4.30;87.90
47590;DHT22;33316;52.298;9.056;2023-03-07T14:43:27;4.30;87.90
47590;DHT22;33316;52.298;9.056;2023-03-07T14:45:57;4.30;88.70
47590;DHT22;33316;52.298;9.056;2023-03-07T14:51:16;4.20;88.00
47590;DHT22;33316;52.298;9.056;2023-03-07T14:53:44;4.20;88.00
47590;DHT22;33316;52.298;9.056;2023-03-07T14:56:13;4.20;88.10
47590;DHT22;33316;52.298;9.056;2023-03-07T14:58:45;4.20;88.20
47590;DHT22;33316;52.298;9.056;2023-03-07T15:01:13;4.20;88.20
47590;DHT22;33316;52.298;9.056;2023-03-07T15:03:43;4.20;88.30
47590;DHT22;33316;52.298;9.056;2023-03-07T15:06:12;4.20;88.30
47590;DHT22;33316;52.298;9.056;2023-03-07T15:08:40;4.30;88.30
47590;DHT22;33316;52.298;9.056;2023-03-07T15:11:08;4.20;88.30
47590;DHT22;33316;52.298;9.056;2023-03-07T15:13:40;4.20;88.30
47590;DHT22;33316;52.298;9.056;2023-03-07T15:16:10;4.20;88.30
47590;DHT22;33316;52.298;9.056;2023-03-07T15:18:38;4.20;88.40
47590;DHT22;33316;52.298;9.056;2023-03-07T15:21:06;4.20;88.40
47590;DHT22;33316;52.298;9.056;2023-03-07T15:23:33;4.20;88.40
47590;DHT22;33316;52.298;9.056;2023-03-07T15:26:02;4.20;88.40
47590;DHT22;33316;52.298;9.056;2023-03-07T15:28:31;4.20;88.60
47590;DHT22;33316;52.298;9.056;2023-03-07T15:30:58;4.20;88.50
47590;DHT22;33316;52.298;9.056;2023-03-07T15:33:25;4.20;88.40
47590;DHT22;33316;52.298;9.056;2023-03-07T15:36:05;4.20;88.40
47590;DHT22;33316;52.298;9.056;2023-03-07T15:38:33;4.20;88.50
47590;DHT22;33316;52.298;9.056;2023-03-07T15:41:01;4.20;88.50
47590;DHT22;33316;52.298;9.056;2023-03-07T15:43:48;4.20;88.60
47590;DHT22;33316;52.298;9.056;2023-03-07T15:46:27;4.20;88.60
47590;DHT22;33316;52.298;9.056;2023-03-07T15:48:56;4.20;88.60
47590;DHT22;33316;52.298;9.056;2023-03-07T15:51:23;4.20;88.60
47590;DHT22;33316;52.298;9.056;2023-03-07T15:53:52;4.20;88.70
47590;DHT22;33316;52.298;9.056;2023-03-07T15:56:25;4.20;88.80
47590;DHT22;33316;52.298;9.056;2023-03-07T15:58:56;4.20;88.80
47590;DHT22;33316;52.298;9.056;2023-03-07T16:01:23;4.20;88.80
47590;DHT22;33316;52.298;9.056;2023-03-07T16:03:51;4.20;88.80
47590;DHT22;33316;52.298;9.056;2023-03-07T16:06:27;4.20;88.90
47590;DHT22;33316;52.298;9.056;2023-03-07T16:08:55;4.20;89.00
47590;DHT22;33316;52.298;9.056;2023-03-07T16:11:23;4.20;89.00
47590;DHT22;33316;52.298;9.056;2023-03-07T16:13:50;4.20;89.10